createdAt,value
2023-02-27T00:00:22.988Z,94.51
2023-02-27T00:02:51.924Z,94.48
2023-02-27T00:05:22.459Z,94.45
2023-02-27T00:07:50.278Z,94.43
2023-02-27T00:10:17.763Z,94.31
2023-02-27T00:12:45.038Z,94.25
2023-02-27T00:15:18.550Z,94.22
2023-02-27T00:17:46.261Z,94.19
2023-02-27T00:20:15.852Z,94.16
2023-02-27T00:22:44.205Z,94.12
2023-02-27T00:25:12.745Z,94.08
2023-02-27T00:27:40.397Z,94.01
2023-02-27T00:30:10.243Z,93.98
2023-02-27T00:32:37.691Z,93.94
2023-02-27T00:35:06.336Z,93.92
2023-02-27T00:37:34.544Z,93.96
2023-02-27T00:40:02.275Z,93.96
2023-02-27T00:42:30.987Z,93.96
2023-02-27T00:44:58.803Z,93.90
2023-02-27T00:47:26.067Z,93.89
2023-02-27T00:49:53.742Z,93.94
2023-02-27T00:52:20.941Z,93.89
2023-02-27T00:54:48.075Z,93.90
2023-02-27T00:57:15.281Z,93.87
2023-02-27T00:59:42.883Z,93.91
2023-02-27T01:02:14.158Z,93.95
2023-02-27T01:04:41.510Z,93.88
2023-02-27T01:07:09.706Z,93.87
2023-02-27T01:09:36.960Z,93.97
2023-02-27T01:12:04.516Z,93.99
2023-02-27T01:14:31.784Z,93.94
2023-02-27T01:16:58.995Z,93.94
2023-02-27T01:19:26.176Z,93.85
2023-02-27T01:21:53.593Z,93.90
2023-02-27T01:24:21.988Z,93.85
2023-02-27T01:26:49.504Z,93.80
2023-02-27T01:29:16.706Z,93.84
2023-02-27T01:31:44.810Z,93.84
2023-02-27T01:34:12.255Z,93.80
2023-02-27T01:36:41.015Z,93.81
2023-02-27T01:39:08.592Z,93.75
2023-02-27T01:41:36.164Z,93.76
2023-02-27T01:44:08.420Z,93.73
2023-02-27T01:46:38.496Z,93.71
2023-02-27T01:49:17.501Z,93.79
2023-02-27T01:52:16.363Z,93.76
2023-02-27T01:54:43.663Z,93.77
2023-02-27T01:57:10.866Z,93.77
2023-02-27T01:59:41.780Z,93.76
2023-02-27T02:02:21.856Z,93.73
2023-02-27T02:04:51.065Z,93.72
2023-02-27T02:07:21.945Z,93.68
2023-02-27T02:09:52.637Z,93.71
2023-02-27T02:12:24.314Z,93.84
2023-02-27T02:14:51.919Z,93.83
2023-02-27T02:17:35.877Z,93.72
2023-02-27T02:20:31.192Z,93.68
2023-02-27T02:23:22.991Z,93.64
2023-02-27T02:26:04.137Z,93.71
2023-02-27T02:29:13.207Z,93.71
2023-02-27T02:31:57.618Z,93.72
2023-02-27T02:34:59.023Z,93.64
2023-02-27T02:37:26.386Z,93.64
2023-02-27T02:40:15.223Z,93.59
2023-02-27T02:43:03.477Z,93.58
2023-02-27T02:45:47.189Z,93.62
2023-02-27T02:48:21.318Z,93.58
2023-02-27T02:50:56.456Z,93.54
2023-02-27T02:53:48.205Z,93.51
2023-02-27T02:56:22.170Z,93.47
2023-02-27T02:59:17.300Z,93.41
2023-02-27T03:02:05.278Z,93.38
2023-02-27T03:04:52.182Z,93.31
2023-02-27T03:07:26.066Z,93.27
2023-02-27T03:10:09.049Z,93.08
2023-02-27T03:12:40.865Z,93.04
2023-02-27T03:15:17.004Z,92.97
2023-02-27T03:18:03.048Z,92.94
2023-02-27T03:20:35.414Z,92.80
2023-02-27T03:23:08.154Z,92.77
2023-02-27T03:25:36.659Z,92.81
2023-02-27T03:28:09.324Z,92.73
2023-02-27T03:30:47.081Z,92.59
2023-02-27T03:33:41.059Z,92.58
2023-02-27T03:36:14.488Z,92.52
2023-02-27T03:39:00.270Z,92.49
2023-02-27T03:41:32.909Z,92.51
2023-02-27T03:44:56.293Z,92.57
2023-02-27T03:47:24.234Z,92.53
2023-02-27T03:49:52.166Z,92.49
2023-02-27T03:52:21.199Z,92.34
2023-02-27T03:55:02.449Z,92.40
2023-02-27T03:57:31.115Z,92.47
2023-02-27T03:59:59.502Z,92.41
2023-02-27T04:02:28.221Z,92.28
2023-02-27T04:04:56.073Z,92.31
2023-02-27T04:07:54.498Z,92.21
2023-02-27T04:10:41.134Z,92.26
2023-02-27T04:13:31.678Z,92.30
2023-02-27T04:16:20.535Z,92.39
2023-02-27T04:19:06.778Z,92.42
2023-02-27T04:22:12.395Z,92.34
2023-02-27T04:24:54.691Z,92.33
2023-02-27T04:27:40.564Z,92.38
2023-02-27T04:30:25.906Z,92.41
2023-02-27T04:33:21.017Z,92.32
2023-02-27T04:35:51.979Z,92.42
2023-02-27T04:38:26.330Z,92.41
2023-02-27T04:41:07.688Z,92.42
2023-02-27T04:43:37.348Z,92.51
2023-02-27T04:46:08.619Z,92.48
2023-02-27T04:48:43.340Z,92.50
2023-02-27T04:51:14.329Z,92.36
2023-02-27T04:53:51.783Z,92.35
2023-02-27T04:56:26.486Z,92.32
2023-02-27T04:58:59.671Z,92.34
2023-02-27T05:01:52.889Z,92.30
2023-02-27T05:04:22.780Z,92.29
2023-02-27T05:06:54.262Z,92.20
2023-02-27T05:09:30.664Z,92.12
2023-02-27T05:12:42.263Z,92.13
2023-02-27T05:15:24.882Z,92.18
2023-02-27T05:18:04.342Z,92.19
2023-02-27T05:20:55.684Z,92.29
2023-02-27T05:23:56.204Z,92.24
2023-02-27T05:26:40.104Z,92.16
2023-02-27T05:29:19.506Z,92.21
2023-02-27T05:32:17.723Z,92.21
2023-02-27T05:34:52.722Z,92.25
2023-02-27T05:37:34.522Z,92.23
2023-02-27T05:40:08.401Z,92.22
2023-02-27T05:42:43.830Z,92.24
2023-02-27T05:45:19.009Z,92.30
2023-02-27T05:47:53.927Z,92.27
2023-02-27T05:50:26.498Z,92.23
2023-02-27T05:52:57.576Z,92.25
2023-02-27T05:55:31.656Z,92.33
2023-02-27T05:58:12.897Z,92.32
2023-02-27T06:00:51.693Z,92.33
2023-02-27T06:03:19.056Z,92.29
2023-02-27T06:05:47.021Z,92.21
2023-02-27T06:08:14.328Z,92.14
2023-02-27T06:10:41.489Z,92.22
2023-02-27T06:13:08.683Z,92.05
2023-02-27T06:15:36.004Z,91.94
2023-02-27T06:18:03.368Z,91.95
2023-02-27T06:20:30.563Z,91.94
2023-02-27T06:22:57.808Z,92.01
2023-02-27T06:25:25.134Z,91.89
2023-02-27T06:27:52.585Z,91.83
2023-02-27T06:30:20.068Z,91.88
2023-02-27T06:32:47.382Z,91.80
2023-02-27T06:35:14.833Z,91.73
2023-02-27T06:37:42.051Z,91.65
2023-02-27T06:40:11.657Z,91.57
2023-02-27T06:42:40.121Z,91.48
2023-02-27T06:45:07.999Z,91.34
2023-02-27T06:47:35.453Z,91.40
2023-02-27T06:50:03.628Z,91.27
2023-02-27T06:52:31.453Z,91.13
2023-02-27T06:54:59.044Z,90.86
2023-02-27T06:57:26.244Z,90.72
2023-02-27T06:59:53.486Z,90.88
2023-02-27T07:02:20.765Z,90.74
2023-02-27T07:04:47.995Z,90.64
2023-02-27T07:07:33.798Z,90.59
2023-02-27T07:10:03.018Z,90.24
2023-02-27T07:12:30.200Z,90.45
2023-02-27T07:14:57.357Z,90.33
2023-02-27T07:17:24.525Z,90.05
2023-02-27T07:19:51.670Z,89.98
2023-02-27T07:22:18.830Z,89.85
2023-02-27T07:24:46.028Z,89.75
2023-02-27T07:27:13.210Z,89.53
2023-02-27T07:29:40.390Z,88.99
2023-02-27T07:32:07.628Z,88.62
2023-02-27T07:34:34.951Z,87.94
2023-02-27T07:37:02.140Z,87.87
2023-02-27T07:39:29.383Z,88.14
2023-02-27T07:41:56.591Z,87.66
2023-02-27T07:44:23.821Z,88.09
2023-02-27T07:46:51.022Z,87.92
2023-02-27T07:49:18.279Z,87.60
2023-02-27T07:51:45.586Z,87.11
2023-02-27T07:54:12.770Z,86.72
2023-02-27T07:56:39.959Z,86.90
2023-02-27T07:59:07.264Z,86.33
2023-02-27T08:01:34.393Z,85.97
2023-02-27T08:04:01.577Z,85.23
2023-02-27T08:06:29.351Z,85.07
2023-02-27T08:08:56.788Z,84.33
2023-02-27T08:11:24.376Z,83.87
2023-02-27T08:14:00.978Z,83.47
2023-02-27T08:16:31.578Z,83.32
2023-02-27T08:19:00.242Z,82.23
2023-02-27T08:21:28.085Z,81.61
2023-02-27T08:23:55.565Z,80.77
2023-02-27T08:26:23.194Z,81.47
2023-02-27T08:28:51.140Z,80.23
2023-02-27T08:31:18.400Z,80.04
2023-02-27T08:33:45.580Z,79.63
2023-02-27T08:36:13.356Z,79.55
2023-02-27T08:38:40.672Z,79.25
2023-02-27T08:41:08.093Z,79.94
2023-02-27T08:43:35.263Z,81.07
2023-02-27T08:46:02.610Z,80.95
2023-02-27T08:48:29.863Z,80.70
2023-02-27T08:50:57.999Z,81.04
2023-02-27T08:53:25.391Z,81.56
2023-02-27T08:55:53.309Z,80.00
2023-02-27T08:58:20.921Z,79.63
2023-02-27T09:00:48.285Z,78.88
2023-02-27T09:03:15.843Z,78.61
2023-02-27T09:05:43.537Z,77.69
2023-02-27T09:08:10.794Z,78.32
2023-02-27T09:10:37.984Z,77.38
2023-02-27T09:13:05.178Z,77.78
2023-02-27T09:15:34.446Z,77.49
2023-02-27T09:18:03.222Z,77.37
2023-02-27T09:20:31.766Z,77.13
2023-02-27T09:22:59.926Z,77.06
2023-02-27T09:25:27.883Z,77.39
2023-02-27T09:27:55.525Z,76.17
2023-02-27T09:30:23.371Z,75.54
2023-02-27T09:32:51.604Z,76.12
2023-02-27T09:35:20.539Z,76.58
2023-02-27T09:37:49.654Z,76.79
2023-02-27T09:40:17.184Z,76.45
2023-02-27T09:42:46.455Z,76.53
2023-02-27T09:45:23.399Z,76.20
2023-02-27T09:47:56.061Z,76.35
2023-02-27T09:50:49.097Z,75.97
2023-02-27T09:53:31.455Z,76.19
2023-02-27T09:56:07.279Z,76.11
2023-02-27T09:59:08.199Z,75.10
2023-02-27T10:01:51.000Z,74.64
2023-02-27T10:04:23.959Z,72.37
2023-02-27T10:06:52.943Z,70.17
2023-02-27T10:09:44.794Z,70.91
2023-02-27T10:12:32.672Z,69.22
2023-02-27T10:15:10.692Z,68.87
2023-02-27T10:18:07.091Z,70.46
2023-02-27T10:20:47.664Z,72.31
2023-02-27T10:23:23.026Z,72.07
2023-02-27T10:25:51.950Z,72.82
2023-02-27T10:28:21.625Z,72.57
2023-02-27T10:30:54.893Z,72.68
2023-02-27T10:33:35.624Z,73.64
2023-02-27T10:36:12.455Z,73.09
2023-02-27T10:38:49.541Z,74.25
2023-02-27T10:41:20.334Z,75.56
2023-02-27T10:43:49.619Z,75.97
2023-02-27T10:46:25.281Z,76.77
2023-02-27T10:48:53.209Z,77.24
2023-02-27T10:51:28.014Z,76.80
2023-02-27T10:54:24.346Z,77.96
2023-02-27T10:56:58.101Z,77.76
2023-02-27T10:59:25.296Z,77.75
2023-02-27T11:01:54.689Z,77.73
2023-02-27T11:04:46.122Z,77.44
2023-02-27T11:07:16.765Z,77.99
2023-02-27T11:09:59.422Z,78.71
2023-02-27T11:12:28.921Z,79.19
2023-02-27T11:14:58.551Z,78.55
2023-02-27T11:17:34.123Z,78.55
2023-02-27T11:20:06.125Z,78.76
2023-02-27T11:22:33.613Z,80.05
2023-02-27T11:25:21.430Z,79.70
2023-02-27T11:27:50.197Z,80.11
2023-02-27T11:30:28.586Z,80.45
2023-02-27T11:32:59.025Z,80.83
2023-02-27T11:35:36.447Z,80.76
2023-02-27T11:38:07.420Z,80.87
2023-02-27T11:40:40.952Z,80.87
2023-02-27T11:43:25.172Z,81.47
2023-02-27T11:46:13.910Z,81.57
2023-02-27T11:48:51.249Z,82.22
2023-02-27T11:51:32.825Z,82.15
2023-02-27T11:54:27.082Z,82.17
2023-02-27T11:57:00.156Z,82.21
2023-02-27T11:59:41.836Z,81.98
2023-02-27T12:02:41.265Z,81.86
2023-02-27T12:05:22.896Z,81.62
2023-02-27T12:07:57.409Z,81.90
2023-02-27T12:11:13.633Z,82.42
2023-02-27T12:13:47.035Z,82.09
2023-02-27T12:16:22.619Z,81.85
2023-02-27T12:18:58.130Z,81.86
2023-02-27T12:21:33.273Z,81.37
2023-02-27T12:24:09.758Z,81.58
2023-02-27T12:26:40.849Z,80.42
2023-02-27T12:29:30.446Z,79.81
2023-02-27T12:32:02.887Z,79.60
2023-02-27T12:34:46.505Z,79.85
2023-02-27T12:37:17.271Z,80.29
2023-02-27T12:39:45.653Z,80.09
2023-02-27T12:42:27.983Z,80.11
2023-02-27T12:45:16.598Z,80.17
2023-02-27T12:48:08.617Z,80.66
2023-02-27T12:51:00.345Z,80.79
2023-02-27T12:53:36.527Z,80.15
2023-02-27T12:56:11.032Z,80.80
2023-02-27T12:59:03.730Z,79.91
2023-02-27T13:01:50.860Z,78.64
2023-02-27T13:04:35.063Z,78.45
2023-02-27T13:07:13.123Z,78.77
2023-02-27T13:09:56.589Z,80.51
2023-02-27T13:12:41.584Z,81.08
2023-02-27T13:15:30.174Z,82.28
2023-02-27T13:18:04.611Z,83.21
2023-02-27T13:20:50.483Z,84.21
2023-02-27T13:23:29.390Z,84.28
2023-02-27T13:25:57.756Z,84.20
2023-02-27T13:28:27.879Z,83.84
2023-02-27T13:31:09.358Z,83.42
2023-02-27T13:33:51.682Z,83.18
2023-02-27T13:36:26.514Z,83.08
2023-02-27T13:38:55.962Z,83.23
2023-02-27T13:41:23.082Z,83.74
2023-02-27T13:43:53.140Z,83.86
2023-02-27T13:46:30.580Z,83.62
2023-02-27T13:49:00.623Z,83.29
2023-02-27T13:51:39.964Z,83.05
2023-02-27T13:54:07.173Z,82.26
2023-02-27T13:56:34.620Z,82.17
2023-02-27T13:59:13.217Z,81.90
2023-02-27T14:01:47.887Z,82.55
2023-02-27T14:04:18.696Z,82.84
2023-02-27T14:06:47.450Z,81.90
2023-02-27T14:09:20.276Z,82.20
2023-02-27T14:11:59.726Z,82.56
2023-02-27T14:14:45.057Z,82.76
2023-02-27T14:17:39.029Z,82.49
2023-02-27T14:20:15.390Z,82.08
2023-02-27T14:23:08.173Z,81.47
2023-02-27T14:25:40.390Z,81.90
2023-02-27T14:28:18.477Z,80.24
2023-02-27T14:30:53.169Z,81.20
2023-02-27T14:33:41.051Z,81.41
2023-02-27T14:36:20.002Z,81.80
2023-02-27T14:38:48.374Z,81.93
2023-02-27T14:41:44.926Z,81.43
2023-02-27T14:44:18.268Z,81.11
2023-02-27T14:46:45.522Z,81.17
2023-02-27T14:49:21.682Z,80.92
2023-02-27T14:51:50.618Z,79.90
2023-02-27T14:54:21.090Z,80.85
2023-02-27T14:56:59.918Z,79.89
2023-02-27T14:59:48.887Z,80.04
2023-02-27T15:02:32.897Z,80.75
2023-02-27T15:05:03.367Z,81.09
2023-02-27T15:07:33.211Z,81.27
2023-02-27T15:10:04.493Z,80.31
2023-02-27T15:12:37.090Z,79.73
2023-02-27T15:15:06.165Z,80.13
2023-02-27T15:17:39.745Z,80.65
2023-02-27T15:20:25.942Z,80.67
2023-02-27T15:22:53.868Z,81.31
2023-02-27T15:25:39.642Z,80.69
2023-02-27T15:28:17.661Z,81.80
2023-02-27T15:30:52.052Z,82.30
2023-02-27T15:33:26.648Z,82.64
2023-02-27T15:35:54.044Z,82.76
2023-02-27T15:38:29.622Z,83.22
2023-02-27T15:40:58.537Z,83.57
2023-02-27T15:43:27.941Z,83.64
2023-02-27T15:45:56.320Z,83.89
2023-02-27T15:48:23.832Z,84.18
2023-02-27T15:50:57.389Z,84.50
2023-02-27T15:53:30.748Z,84.48
2023-02-27T15:56:01.602Z,84.90
2023-02-27T15:58:31.931Z,84.79
2023-02-27T16:01:07.875Z,85.16
2023-02-27T16:03:46.330Z,85.51
2023-02-27T16:06:24.545Z,85.96
2023-02-27T16:09:00.569Z,86.18
2023-02-27T16:11:30.276Z,86.47
2023-02-27T16:13:58.029Z,86.68
2023-02-27T16:16:35.392Z,86.90
2023-02-27T16:19:22.711Z,87.00
2023-02-27T16:22:12.979Z,87.12
2023-02-27T16:24:40.804Z,87.26
2023-02-27T16:27:22.155Z,87.47
2023-02-27T16:29:50.110Z,87.58
2023-02-27T16:32:42.279Z,87.79
2023-02-27T16:35:22.323Z,87.97
2023-02-27T16:37:50.499Z,88.11
2023-02-27T16:40:25.990Z,88.46
2023-02-27T16:42:53.958Z,88.60
2023-02-27T16:45:27.041Z,88.77
2023-02-27T16:47:57.204Z,88.96
2023-02-27T16:50:31.667Z,89.07
2023-02-27T16:52:59.348Z,89.21
2023-02-27T16:55:27.249Z,89.38
2023-02-27T16:57:54.499Z,89.49
2023-02-27T17:00:24.890Z,89.67
2023-02-27T17:02:52.218Z,89.88
2023-02-27T17:05:19.560Z,89.92
2023-02-27T17:07:47.129Z,89.99
2023-02-27T17:10:16.803Z,90.03
2023-02-27T17:12:44.215Z,90.12
2023-02-27T17:15:11.546Z,90.13
2023-02-27T17:17:38.718Z,90.06
2023-02-27T17:20:07.362Z,90.20
2023-02-27T17:22:39.879Z,90.36
2023-02-27T17:25:08.408Z,90.49
2023-02-27T17:27:36.368Z,90.52
2023-02-27T17:30:04.532Z,90.67
2023-02-27T17:32:31.827Z,90.67
2023-02-27T17:34:59.301Z,90.95
2023-02-27T17:37:27.180Z,91.16
2023-02-27T17:39:54.861Z,91.21
2023-02-27T17:42:25.560Z,91.29
2023-02-27T17:44:53.059Z,91.23
2023-02-27T17:47:20.383Z,91.18
2023-02-27T17:49:47.654Z,91.25
2023-02-27T17:52:15.092Z,91.25
2023-02-27T17:54:42.286Z,91.24
2023-02-27T17:57:11.461Z,91.21
2023-02-27T17:59:38.852Z,91.33
2023-02-27T18:02:07.675Z,91.51
2023-02-27T18:04:35.112Z,91.45
2023-02-27T18:07:02.374Z,91.39
2023-02-27T18:09:29.612Z,91.55
2023-02-27T18:11:57.880Z,91.58
2023-02-27T18:14:25.216Z,91.71
2023-02-27T18:16:52.531Z,91.61
2023-02-27T18:19:19.838Z,91.62
2023-02-27T18:21:47.249Z,91.58
2023-02-27T18:24:17.638Z,91.56
2023-02-27T18:26:45.340Z,91.58
2023-02-27T18:29:13.990Z,91.51
2023-02-27T18:31:44.552Z,91.51
2023-02-27T18:34:12.806Z,91.47
2023-02-27T18:36:40.163Z,91.45
2023-02-27T18:39:08.107Z,91.58
2023-02-27T18:41:35.643Z,91.58
2023-02-27T18:44:03.833Z,91.59
2023-02-27T18:46:32.572Z,91.52
2023-02-27T18:48:59.956Z,91.60
2023-02-27T18:51:27.657Z,91.59
2023-02-27T18:53:54.918Z,91.60
2023-02-27T18:56:24.887Z,91.65
2023-02-27T18:58:52.833Z,91.69
2023-02-27T19:01:26.713Z,91.75
2023-02-27T19:04:00.132Z,91.73
2023-02-27T19:06:27.943Z,91.93
2023-02-27T19:08:55.856Z,91.85
2023-02-27T19:11:26.004Z,91.78
2023-02-27T19:13:53.230Z,91.86
2023-02-27T19:16:20.493Z,91.84
2023-02-27T19:18:47.797Z,91.84
2023-02-27T19:21:14.986Z,91.58
2023-02-27T19:23:42.203Z,91.47
2023-02-27T19:26:09.401Z,91.46
2023-02-27T19:28:36.618Z,91.42
2023-02-27T19:31:12.732Z,91.38
2023-02-27T19:33:40.633Z,91.39
2023-02-27T19:36:14.494Z,91.36
2023-02-27T19:38:41.986Z,91.37
2023-02-27T19:41:11.448Z,91.38
2023-02-27T19:43:40.785Z,91.36
2023-02-27T19:46:10.658Z,91.40
2023-02-27T19:48:38.499Z,91.43
2023-02-27T19:51:07.775Z,91.40
2023-02-27T19:53:36.644Z,91.36
2023-02-27T19:56:07.538Z,91.36
2023-02-27T19:58:36.160Z,91.32
2023-02-27T20:01:04.554Z,91.32
2023-02-27T20:03:33.218Z,91.27
2023-02-27T20:06:00.582Z,91.27
2023-02-27T20:08:28.014Z,91.23
2023-02-27T20:10:56.883Z,91.19
2023-02-27T20:13:25.052Z,91.20
2023-02-27T20:16:04.208Z,91.23
2023-02-27T20:18:32.237Z,91.25
2023-02-27T20:21:04.412Z,91.22
2023-02-27T20:23:32.930Z,91.20
2023-02-27T20:26:00.461Z,91.19
2023-02-27T20:28:31.868Z,91.23
2023-02-27T20:30:59.150Z,91.25
2023-02-27T20:33:26.347Z,91.23
2023-02-27T20:35:53.659Z,91.23
2023-02-27T20:38:22.714Z,91.25
2023-02-27T20:40:49.975Z,91.27
2023-02-27T20:43:17.152Z,91.32
2023-02-27T20:45:44.349Z,91.32
2023-02-27T20:48:11.675Z,91.31
2023-02-27T20:50:38.856Z,91.36
2023-02-27T20:53:05.965Z,91.38
2023-02-27T20:55:33.214Z,91.35
2023-02-27T20:58:00.379Z,91.44
2023-02-27T21:00:27.855Z,91.42
2023-02-27T21:02:55.128Z,91.46
2023-02-27T21:05:22.519Z,91.50
2023-02-27T21:07:49.752Z,91.56
2023-02-27T21:10:17.815Z,91.58
2023-02-27T21:12:45.116Z,91.58
2023-02-27T21:15:12.679Z,91.59
2023-02-27T21:17:39.984Z,91.56
2023-02-27T21:20:08.028Z,91.55
2023-02-27T21:22:35.539Z,91.53
2023-02-27T21:25:02.761Z,91.51
2023-02-27T21:27:29.930Z,91.49
2023-02-27T21:29:57.121Z,91.48
2023-02-27T21:32:24.287Z,91.45
2023-02-27T21:34:51.493Z,91.42
2023-02-27T21:37:18.963Z,91.38
2023-02-27T21:39:50.569Z,91.38
2023-02-27T21:42:18.560Z,91.40
2023-02-27T21:44:45.884Z,91.42
2023-02-27T21:47:13.143Z,91.38
2023-02-27T21:49:40.316Z,91.38
2023-02-27T21:52:07.459Z,91.49
2023-02-27T21:54:34.752Z,91.56
2023-02-27T21:57:03.200Z,91.52
2023-02-27T21:59:30.780Z,91.56
2023-02-27T22:01:58.585Z,91.55
2023-02-27T22:04:25.831Z,91.57
2023-02-27T22:06:53.000Z,91.63
2023-02-27T22:09:20.685Z,91.61
2023-02-27T22:11:48.779Z,91.65
2023-02-27T22:14:16.203Z,91.64
2023-02-27T22:16:43.503Z,91.63
2023-02-27T22:19:19.664Z,91.64
2023-02-27T22:21:46.969Z,91.67
2023-02-27T22:24:14.676Z,91.58
2023-02-27T22:26:42.582Z,91.55
2023-02-27T22:29:10.125Z,91.74
2023-02-27T22:31:38.297Z,91.69
2023-02-27T22:34:17.906Z,91.61
2023-02-27T22:36:47.072Z,91.57
2023-02-27T22:39:14.472Z,91.56
2023-02-27T22:41:42.467Z,91.53
2023-02-27T22:44:13.175Z,91.52
2023-02-27T22:46:43.621Z,91.51
2023-02-27T22:49:14.388Z,91.50
2023-02-27T22:51:42.006Z,91.47
2023-02-27T22:54:11.654Z,91.43
2023-02-27T22:56:38.928Z,91.36
2023-02-27T22:59:06.677Z,91.40
2023-02-27T23:01:36.235Z,91.40
2023-02-27T23:04:07.919Z,91.42
2023-02-27T23:06:38.867Z,91.80
2023-02-27T23:09:08.699Z,91.85
2023-02-27T23:11:36.185Z,91.87
2023-02-27T23:14:03.780Z,91.75
2023-02-27T23:16:31.282Z,91.79
2023-02-27T23:18:59.841Z,91.83
2023-02-27T23:21:34.380Z,91.81
2023-02-27T23:24:13.030Z,91.74
2023-02-27T23:26:43.477Z,91.74
2023-02-27T23:29:11.708Z,91.74
2023-02-27T23:31:39.080Z,91.79
2023-02-27T23:34:06.939Z,91.76
2023-02-27T23:36:35.564Z,91.74
2023-02-27T23:39:05.073Z,91.74
2023-02-27T23:41:32.827Z,91.72
2023-02-27T23:44:01.477Z,91.73
2023-02-27T23:46:31.558Z,91.77
2023-02-27T23:48:59.632Z,91.81
2023-02-27T23:51:30.317Z,91.83
2023-02-27T23:53:58.475Z,91.83
2023-02-27T23:56:28.713Z,91.79
2023-02-27T23:59:04.920Z,91.68
